ケープタウン国際空港の過去48時間の天気

ケープタウン国際空港 (Cape Town, Cape Town International Airport)

現在時刻: 8/17 02:12 SAST (8/17 00:12 UTC) 以下の時間は現地時間です。

過去48時間のMETAR気象情報
時間 風向 風速(m/s) 視程 気温(℃) 湿度(%) 気圧(hPa) 天気現象
17 02:00 北北西 3 10km以上 7 93 1023
17 01:00 不定 1 10km以上 10 82 1023
17 00:00 不定 1 10km以上 11 87 1023
16 23:00 不定 1 10km以上 11 71 1022
16 22:00 北東 2 10km以上 11 87 1021
FACT 170000Z 34005KT 9999 FEW035 07/06 Q1023 NOSIG
FACT 162300Z VRB01KT 9999 SCT030 10/07 Q1023 NOSIG
FACT 162200Z VRB02KT 9999 BKN035 11/09 Q1023 NOSIG
FACT 162100Z VRB02KT 9999 BKN035 11/06 Q1022 NOSIG
FACT 162000Z 05004KT 9999 BKN030 11/09 Q1021 NOSIG